sensor_id;sensor_type;location;lat;lon;timestamp;temperature;humidity
51557;DHT22;38766;53.194;5.532;2022-08-20T00:00:56;19.60;99.90
51557;DHT22;38766;53.194;5.532;2022-08-20T00:03:32;19.60;99.90
51557;DHT22;38766;53.194;5.532;2022-08-20T00:06:11;19.60;99.90
51557;DHT22;38766;53.194;5.532;2022-08-20T00:08:37;19.60;99.90
51557;DHT22;38766;53.194;5.532;2022-08-20T00:11:05;19.60;99.90
51557;DHT22;38766;53.194;5.532;2022-08-20T00:13:34;19.60;99.90
51557;DHT22;38766;53.194;5.532;2022-08-20T00:16:01;19.60;99.90
51557;DHT22;38766;53.194;5.532;2022-08-20T00:18:27;19.50;99.90
51557;DHT22;38766;53.194;5.532;2022-08-20T00:20:55;19.50;99.90
51557;DHT22;38766;53.194;5.532;2022-08-20T00:23:21;19.60;99.90
51557;DHT22;38766;53.194;5.532;2022-08-20T00:25:47;19.40;99.90
51557;DHT22;38766;53.194;5.532;2022-08-20T00:28:13;19.40;99.90
51557;DHT22;38766;53.194;5.532;2022-08-20T00:30:41;19.40;99.90
51557;DHT22;38766;53.194;5.532;2022-08-20T00:33:10;19.40;99.90
51557;DHT22;38766;53.194;5.532;2022-08-20T00:35:40;19.40;99.90
51557;DHT22;38766;53.194;5.532;2022-08-20T00:38:07;19.40;99.90
51557;DHT22;38766;53.194;5.532;2022-08-20T00:40:55;19.30;99.90
51557;DHT22;38766;53.194;5.532;2022-08-20T00:45:57;19.30;99.90
51557;DHT22;38766;53.194;5.532;2022-08-20T00:48:25;19.30;99.90
51557;DHT22;38766;53.194;5.532;2022-08-20T00:50:52;19.20;99.90
51557;DHT22;38766;53.194;5.532;2022-08-20T00:53:22;19.20;99.90
51557;DHT22;38766;53.194;5.532;2022-08-20T00:55:48;19.10;99.90
51557;DHT22;38766;53.194;5.532;2022-08-20T00:58:14;19.10;99.90
51557;DHT22;38766;53.194;5.532;2022-08-20T01:00:42;19.10;99.90
51557;DHT22;38766;53.194;5.532;2022-08-20T01:03:11;19.00;99.90
51557;DHT22;38766;53.194;5.532;2022-08-20T01:05:44;19.00;99.90
51557;DHT22;38766;53.194;5.532;2022-08-20T01:08:14;19.00;99.90
51557;DHT22;38766;53.194;5.532;2022-08-20T01:10:43;19.00;99.90
51557;DHT22;38766;53.194;5.532;2022-08-20T01:13:12;18.90;99.90
51557;DHT22;38766;53.194;5.532;2022-08-20T01:15:44;18.90;99.90
51557;DHT22;38766;53.194;5.532;2022-08-20T01:18:14;18.90;99.90
51557;DHT22;38766;53.194;5.532;2022-08-20T01:20:46;18.90;99.90
51557;DHT22;38766;53.194;5.532;2022-08-20T01:28:51;18.80;99.90
51557;DHT22;38766;53.194;5.532;2022-08-20T01:31:23;18.80;99.90
51557;DHT22;38766;53.194;5.532;2022-08-20T01:33:50;18.80;99.90
51557;DHT22;38766;53.194;5.532;2022-08-20T01:36:21;18.70;99.90
51557;DHT22;38766;53.194;5.532;2022-08-20T01:38:47;18.80;99.90
51557;DHT22;38766;53.194;5.532;2022-08-20T01:43:39;18.70;99.90
51557;DHT22;38766;53.194;5.532;2022-08-20T01:46:07;18.60;99.90
51557;DHT22;38766;53.194;5.532;2022-08-20T01:48:35;18.70;99.90
51557;DHT22;38766;53.194;5.532;2022-08-20T01:51:16;18.60;99.90
51557;DHT22;38766;53.194;5.532;2022-08-20T01:53:48;18.60;99.90
51557;DHT22;38766;53.194;5.532;2022-08-20T01:56:19;18.60;99.90
51557;DHT22;38766;53.194;5.532;2022-08-20T01:58:51;18.60;99.90
51557;DHT22;38766;53.194;5.532;2022-08-20T02:01:25;18.50;99.90
51557;DHT22;38766;53.194;5.532;2022-08-20T02:03:52;18.60;99.90
51557;DHT22;38766;53.194;5.532;2022-08-20T02:06:19;18.60;99.90
51557;DHT22;38766;53.194;5.532;2022-08-20T02:08:54;18.50;99.90
51557;DHT22;38766;53.194;5.532;2022-08-20T02:11:20;18.60;99.90
51557;DHT22;38766;53.194;5.532;2022-08-20T02:13:46;18.50;99.90
51557;DHT22;38766;53.194;5.532;2022-08-20T02:16:38;18.50;99.90
51557;DHT22;38766;53.194;5.532;2022-08-20T02:19:28;18.50;99.90
51557;DHT22;38766;53.194;5.532;2022-08-20T02:21:56;18.50;99.90
51557;DHT22;38766;53.194;5.532;2022-08-20T02:24:23;18.40;99.90
51557;DHT22;38766;53.194;5.532;2022-08-20T02:26:49;18.40;99.90
51557;DHT22;38766;53.194;5.532;2022-08-20T02:29:15;18.40;99.90
51557;DHT22;38766;53.194;5.532;2022-08-20T02:31:42;18.40;99.90
51557;DHT22;38766;53.194;5.532;2022-08-20T02:34:10;18.40;99.90
51557;DHT22;38766;53.194;5.532;2022-08-20T02:36:36;18.40;99.90
51557;DHT22;38766;53.194;5.532;2022-08-20T02:39:08;18.30;99.90
51557;DHT22;38766;53.194;5.532;2022-08-20T02:41:36;18.30;99.90
51557;DHT22;38766;53.194;5.532;2022-08-20T02:44:03;18.30;99.90
51557;DHT22;38766;53.194;5.532;2022-08-20T02:46:29;18.30;99.90
51557;DHT22;38766;53.194;5.532;2022-08-20T02:48:55;18.30;99.90
51557;DHT22;38766;53.194;5.532;2022-08-20T02:51:21;18.30;99.90
51557;DHT22;38766;53.194;5.532;2022-08-20T02:53:46;18.30;99.90
51557;DHT22;38766;53.194;5.532;2022-08-20T02:56:13;18.30;99.90
51557;DHT22;38766;53.194;5.532;2022-08-20T02:58:39;18.30;99.90
51557;DHT22;38766;53.194;5.532;2022-08-20T03:01:07;18.20;99.90
51557;DHT22;38766;53.194;5.532;2022-08-20T03:03:33;18.20;99.90
51557;DHT22;38766;53.194;5.532;2022-08-20T03:05:59;18.20;99.90
51557;DHT22;38766;53.194;5.532;2022-08-20T03:08:26;18.20;99.90
51557;DHT22;38766;53.194;5.532;2022-08-20T03:10:53;18.10;99.90
51557;DHT22;38766;53.194;5.532;2022-08-20T03:13:20;18.00;99.90
51557;DHT22;38766;53.194;5.532;2022-08-20T03:15:49;18.10;99.90
51557;DHT22;38766;53.194;5.532;2022-08-20T03:18:21;18.10;99.90
51557;DHT22;38766;53.194;5.532;2022-08-20T03:20:48;18.10;99.90
51557;DHT22;38766;53.194;5.532;2022-08-20T03:23:15;18.00;99.90
51557;DHT22;38766;53.194;5.532;2022-08-20T03:25:42;18.00;99.90
51557;DHT22;38766;53.194;5.532;2022-08-20T03:28:08;18.00;99.90
51557;DHT22;38766;53.194;5.532;2022-08-20T03:30:35;18.00;99.90
51557;DHT22;38766;53.194;5.532;2022-08-20T03:33:00;18.00;99.90
51557;DHT22;38766;53.194;5.532;2022-08-20T03:35:27;18.00;99.90
51557;DHT22;38766;53.194;5.532;2022-08-20T03:37:54;17.90;99.90
51557;DHT22;38766;53.194;5.532;2022-08-20T03:40:31;17.90;99.90
51557;DHT22;38766;53.194;5.532;2022-08-20T03:42:57;17.90;99.90
51557;DHT22;38766;53.194;5.532;2022-08-20T03:45:25;17.80;99.90
51557;DHT22;38766;53.194;5.532;2022-08-20T03:47:52;17.80;99.90
51557;DHT22;38766;53.194;5.532;2022-08-20T03:50:20;17.80;99.90
51557;DHT22;38766;53.194;5.532;2022-08-20T03:52:46;17.70;99.90
51557;DHT22;38766;53.194;5.532;2022-08-20T03:55:12;17.70;99.90
51557;DHT22;38766;53.194;5.532;2022-08-20T03:57:56;17.70;99.90
51557;DHT22;38766;53.194;5.532;2022-08-20T04:00:46;17.70;99.90
51557;DHT22;38766;53.194;5.532;2022-08-20T04:03:10;17.70;99.90
51557;DHT22;38766;53.194;5.532;2022-08-20T04:05:37;17.60;99.90
51557;DHT22;38766;53.194;5.532;2022-08-20T04:08:10;17.60;99.90
51557;DHT22;38766;53.194;5.532;2022-08-20T04:10:36;17.60;99.90
51557;DHT22;38766;53.194;5.532;2022-08-20T04:13:04;17.60;99.90
51557;DHT22;38766;53.194;5.532;2022-08-20T04:15:31;17.50;99.90
51557;DHT22;38766;53.194;5.532;2022-08-20T04:17:57;17.40;99.90
51557;DHT22;38766;53.194;5.532;2022-08-20T04:20:23;17.50;99.90
51557;DHT22;38766;53.194;5.532;2022-08-20T04:22:52;17.50;99.90
51557;DHT22;38766;53.194;5.532;2022-08-20T04:25:17;17.50;99.90
51557;DHT22;38766;53.194;5.532;2022-08-20T04:27:43;17.40;99.90
51557;DHT22;38766;53.194;5.532;2022-08-20T04:30:12;17.40;99.90
51557;DHT22;38766;53.194;5.532;2022-08-20T04:32:41;17.40;99.90
51557;DHT22;38766;53.194;5.532;2022-08-20T04:35:10;17.40;99.90
51557;DHT22;38766;53.194;5.532;2022-08-20T04:37:37;17.40;99.90
51557;DHT22;38766;53.194;5.532;2022-08-20T04:40:10;17.30;99.90
51557;DHT22;38766;53.194;5.532;2022-08-20T04:42:56;17.30;99.90
51557;DHT22;38766;53.194;5.532;2022-08-20T04:45:22;17.30;99.90
51557;DHT22;38766;53.194;5.532;2022-08-20T04:47:48;17.30;99.90
51557;DHT22;38766;53.194;5.532;2022-08-20T04:50:15;17.30;99.90
51557;DHT22;38766;53.194;5.532;2022-08-20T04:52:41;17.20;99.90
51557;DHT22;38766;53.194;5.532;2022-08-20T04:55:07;17.20;99.90
51557;DHT22;38766;53.194;5.532;2022-08-20T04:57:33;17.20;99.90
51557;DHT22;38766;53.194;5.532;2022-08-20T05:00:13;17.10;99.90
51557;DHT22;38766;53.194;5.532;2022-08-20T05:02:40;17.20;99.90
51557;DHT22;38766;53.194;5.532;2022-08-20T05:05:07;17.10;99.90
51557;DHT22;38766;53.194;5.532;2022-08-20T05:07:42;17.20;99.90
51557;DHT22;38766;53.194;5.532;2022-08-20T05:10:10;17.10;99.90
51557;DHT22;38766;53.194;5.532;2022-08-20T05:12:37;17.10;99.90
51557;DHT22;38766;53.194;5.532;2022-08-20T05:15:03;17.10;99.90
51557;DHT22;38766;53.194;5.532;2022-08-20T05:17:29;17.10;99.90
51557;DHT22;38766;53.194;5.532;2022-08-20T05:19:55;17.00;99.90
51557;DHT22;38766;53.194;5.532;2022-08-20T05:22:23;17.10;99.90
51557;DHT22;38766;53.194;5.532;2022-08-20T05:24:49;17.10;99.90
51557;DHT22;38766;53.194;5.532;2022-08-20T05:27:18;17.10;99.90
51557;DHT22;38766;53.194;5.532;2022-08-20T05:29:43;17.10;99.90
51557;DHT22;38766;53.194;5.532;2022-08-20T05:32:09;17.20;99.90
51557;DHT22;38766;53.194;5.532;2022-08-20T05:34:36;17.10;99.90
51557;DHT22;38766;53.194;5.532;2022-08-20T05:37:03;17.20;99.90
51557;DHT22;38766;53.194;5.532;2022-08-20T05:39:29;17.10;99.90
51557;DHT22;38766;53.194;5.532;2022-08-20T05:41:55;17.20;99.90
51557;DHT22;38766;53.194;5.532;2022-08-20T05:44:21;17.10;99.90
51557;DHT22;38766;53.194;5.532;2022-08-20T05:46:47;17.20;99.90
51557;DHT22;38766;53.194;5.532;2022-08-20T05:49:15;17.10;99.90
51557;DHT22;38766;53.194;5.532;2022-08-20T05:51:42;17.20;99.90
51557;DHT22;38766;53.194;5.532;2022-08-20T05:54:08;17.20;99.90
51557;DHT22;38766;53.194;5.532;2022-08-20T05:56:34;17.20;99.90
51557;DHT22;38766;53.194;5.532;2022-08-20T05:59:01;17.20;99.90
51557;DHT22;38766;53.194;5.532;2022-08-20T06:01:28;17.20;99.90
51557;DHT22;38766;53.194;5.532;2022-08-20T06:03:54;17.30;99.90
51557;DHT22;38766;53.194;5.532;2022-08-20T06:06:38;17.30;99.90
51557;DHT22;38766;53.194;5.532;2022-08-20T06:09:04;17.40;99.90
51557;DHT22;38766;53.194;5.532;2022-08-20T06:11:30;17.50;99.90
51557;DHT22;38766;53.194;5.532;2022-08-20T06:13:56;17.50;99.90
51557;DHT22;38766;53.194;5.532;2022-08-20T06:16:21;17.50;99.90
51557;DHT22;38766;53.194;5.532;2022-08-20T06:18:47;17.60;99.90
51557;DHT22;38766;53.194;5.532;2022-08-20T06:21:13;17.70;99.90
51557;DHT22;38766;53.194;5.532;2022-08-20T06:23:39;17.80;99.90
51557;DHT22;38766;53.194;5.532;2022-08-20T06:26:06;18.10;99.90
51557;DHT22;38766;53.194;5.532;2022-08-20T06:28:36;18.40;99.90
51557;DHT22;38766;53.194;5.532;2022-08-20T06:31:02;18.70;99.90
51557;DHT22;38766;53.194;5.532;2022-08-20T06:33:27;19.00;99.90
51557;DHT22;38766;53.194;5.532;2022-08-20T06:35:53;19.30;99.90
51557;DHT22;38766;53.194;5.532;2022-08-20T06:38:20;19.60;99.90
51557;DHT22;38766;53.194;5.532;2022-08-20T06:40:46;19.90;99.90
51557;DHT22;38766;53.194;5.532;2022-08-20T06:43:12;20.10;99.90
51557;DHT22;38766;53.194;5.532;2022-08-20T06:45:38;20.40;99.90
51557;DHT22;38766;53.194;5.532;2022-08-20T06:48:12;20.70;99.90
51557;DHT22;38766;53.194;5.532;2022-08-20T06:50:41;20.90;99.90
51557;DHT22;38766;53.194;5.532;2022-08-20T06:53:09;21.20;99.90
51557;DHT22;38766;53.194;5.532;2022-08-20T06:55:40;21.40;99.90
51557;DHT22;38766;53.194;5.532;2022-08-20T06:58:08;21.50;99.90
51557;DHT22;38766;53.194;5.532;2022-08-20T07:00:36;21.70;99.90
51557;DHT22;38766;53.194;5.532;2022-08-20T07:03:02;21.90;99.90
51557;DHT22;38766;53.194;5.532;2022-08-20T07:05:30;22.10;99.90
51557;DHT22;38766;53.194;5.532;2022-08-20T07:07:56;22.30;99.90
51557;DHT22;38766;53.194;5.532;2022-08-20T07:10:23;22.50;99.90
51557;DHT22;38766;53.194;5.532;2022-08-20T07:12:49;22.70;99.90
51557;DHT22;38766;53.194;5.532;2022-08-20T07:15:16;22.80;99.90
51557;DHT22;38766;53.194;5.532;2022-08-20T07:17:48;22.90;99.90
51557;DHT22;38766;53.194;5.532;2022-08-20T07:20:14;23.00;99.90
51557;DHT22;38766;53.194;5.532;2022-08-20T07:22:40;23.20;99.90
51557;DHT22;38766;53.194;5.532;2022-08-20T07:25:09;23.30;99.90
51557;DHT22;38766;53.194;5.532;2022-08-20T07:27:36;23.40;99.90
51557;DHT22;38766;53.194;5.532;2022-08-20T07:30:03;23.50;99.90
51557;DHT22;38766;53.194;5.532;2022-08-20T07:32:48;23.60;99.90
51557;DHT22;38766;53.194;5.532;2022-08-20T07:35:16;23.80;99.90
51557;DHT22;38766;53.194;5.532;2022-08-20T07:37:44;23.80;99.90
51557;DHT22;38766;53.194;5.532;2022-08-20T07:40:14;23.80;99.70
51557;DHT22;38766;53.194;5.532;2022-08-20T07:42:40;23.80;99.30
51557;DHT22;38766;53.194;5.532;2022-08-20T07:45:07;23.80;99.00
51557;DHT22;38766;53.194;5.532;2022-08-20T07:47:39;23.80;98.60
51557;DHT22;38766;53.194;5.532;2022-08-20T07:50:12;23.80;98.10
51557;DHT22;38766;53.194;5.532;2022-08-20T07:52:38;23.90;98.00
51557;DHT22;38766;53.194;5.532;2022-08-20T07:55:05;24.10;97.90
51557;DHT22;38766;53.194;5.532;2022-08-20T07:57:31;24.10;97.60
51557;DHT22;38766;53.194;5.532;2022-08-20T07:59:57;24.10;97.30
51557;DHT22;38766;53.194;5.532;2022-08-20T08:02:25;24.10;97.00
51557;DHT22;38766;53.194;5.532;2022-08-20T08:04:51;24.10;96.80
51557;DHT22;38766;53.194;5.532;2022-08-20T08:07:17;24.10;96.70
51557;DHT22;38766;53.194;5.532;2022-08-20T08:09:43;24.10;96.80
51557;DHT22;38766;53.194;5.532;2022-08-20T08:12:11;24.10;96.40
51557;DHT22;38766;53.194;5.532;2022-08-20T08:14:39;24.10;95.80
51557;DHT22;38766;53.194;5.532;2022-08-20T08:17:06;24.10;95.40
51557;DHT22;38766;53.194;5.532;2022-08-20T08:19:37;24.10;95.20
51557;DHT22;38766;53.194;5.532;2022-08-20T08:22:12;24.10;95.00
51557;DHT22;38766;53.194;5.532;2022-08-20T08:24:39;24.10;94.90
51557;DHT22;38766;53.194;5.532;2022-08-20T08:27:05;24.10;94.60
51557;DHT22;38766;53.194;5.532;2022-08-20T08:29:32;24.10;94.60
51557;DHT22;38766;53.194;5.532;2022-08-20T08:32:00;24.20;94.80
51557;DHT22;38766;53.194;5.532;2022-08-20T08:34:26;24.20;94.70
51557;DHT22;38766;53.194;5.532;2022-08-20T08:36:52;24.10;94.70
51557;DHT22;38766;53.194;5.532;2022-08-20T08:39:18;24.20;94.60
51557;DHT22;38766;53.194;5.532;2022-08-20T08:41:49;24.20;94.20
51557;DHT22;38766;53.194;5.532;2022-08-20T08:44:28;24.20;93.90
51557;DHT22;38766;53.194;5.532;2022-08-20T08:47:19;24.20;93.60
51557;DHT22;38766;53.194;5.532;2022-08-20T08:49:49;24.20;92.90
51557;DHT22;38766;53.194;5.532;2022-08-20T08:52:22;24.20;93.20
51557;DHT22;38766;53.194;5.532;2022-08-20T08:54:53;24.30;92.80
51557;DHT22;38766;53.194;5.532;2022-08-20T08:57:19;24.30;92.80
51557;DHT22;38766;53.194;5.532;2022-08-20T08:59:47;24.30;93.00
51557;DHT22;38766;53.194;5.532;2022-08-20T09:02:20;24.20;92.80
51557;DHT22;38766;53.194;5.532;2022-08-20T09:04:46;24.20;92.40
51557;DHT22;38766;53.194;5.532;2022-08-20T09:07:14;24.20;92.00
51557;DHT22;38766;53.194;5.532;2022-08-20T09:09:42;24.30;91.80
51557;DHT22;38766;53.194;5.532;2022-08-20T09:12:15;24.30;91.60
51557;DHT22;38766;53.194;5.532;2022-08-20T09:14:46;24.30;91.50
51557;DHT22;38766;53.194;5.532;2022-08-20T09:17:13;24.30;91.20
51557;DHT22;38766;53.194;5.532;2022-08-20T09:19:38;24.30;91.40
51557;DHT22;38766;53.194;5.532;2022-08-20T09:22:09;24.40;91.00
51557;DHT22;38766;53.194;5.532;2022-08-20T09:24:35;24.40;89.20
51557;DHT22;38766;53.194;5.532;2022-08-20T09:27:01;24.40;88.60
51557;DHT22;38766;53.194;5.532;2022-08-20T09:29:26;24.40;87.90
51557;DHT22;38766;53.194;5.532;2022-08-20T09:34:35;24.50;86.40
51557;DHT22;38766;53.194;5.532;2022-08-20T09:37:00;24.50;87.50
51557;DHT22;38766;53.194;5.532;2022-08-20T09:39:26;24.60;87.50
51557;DHT22;38766;53.194;5.532;2022-08-20T09:41:51;24.70;86.60
51557;DHT22;38766;53.194;5.532;2022-08-20T09:44:17;24.80;86.50
51557;DHT22;38766;53.194;5.532;2022-08-20T09:46:42;24.80;86.40
51557;DHT22;38766;53.194;5.532;2022-08-20T09:49:08;24.80;86.40
51557;DHT22;38766;53.194;5.532;2022-08-20T09:51:34;24.80;86.60
51557;DHT22;38766;53.194;5.532;2022-08-20T09:53:59;24.90;86.80
51557;DHT22;38766;53.194;5.532;2022-08-20T09:56:27;24.90;86.40
51557;DHT22;38766;53.194;5.532;2022-08-20T09:58:54;24.90;86.10
51557;DHT22;38766;53.194;5.532;2022-08-20T10:01:20;24.90;85.80
51557;DHT22;38766;53.194;5.532;2022-08-20T10:03:47;24.90;85.50
51557;DHT22;38766;53.194;5.532;2022-08-20T10:06:14;24.90;84.80
51557;DHT22;38766;53.194;5.532;2022-08-20T10:08:41;24.90;85.10
51557;DHT22;38766;53.194;5.532;2022-08-20T10:11:07;24.90;84.60
51557;DHT22;38766;53.194;5.532;2022-08-20T10:13:33;24.90;84.10
51557;DHT22;38766;53.194;5.532;2022-08-20T10:15:58;24.80;83.90
51557;DHT22;38766;53.194;5.532;2022-08-20T10:18:24;24.80;83.90
51557;DHT22;38766;53.194;5.532;2022-08-20T10:20:49;24.80;84.00
51557;DHT22;38766;53.194;5.532;2022-08-20T10:23:15;24.80;83.60
51557;DHT22;38766;53.194;5.532;2022-08-20T10:25:41;24.90;82.90
51557;DHT22;38766;53.194;5.532;2022-08-20T10:28:07;24.90;82.40
51557;DHT22;38766;53.194;5.532;2022-08-20T10:30:33;24.90;81.70
51557;DHT22;38766;53.194;5.532;2022-08-20T10:32:59;25.00;81.30
51557;DHT22;38766;53.194;5.532;2022-08-20T10:35:25;25.10;81.00
51557;DHT22;38766;53.194;5.532;2022-08-20T10:37:51;25.10;80.40
51557;DHT22;38766;53.194;5.532;2022-08-20T10:40:16;25.20;80.30
51557;DHT22;38766;53.194;5.532;2022-08-20T10:42:42;25.20;79.60
51557;DHT22;38766;53.194;5.532;2022-08-20T10:45:14;25.20;79.20
51557;DHT22;38766;53.194;5.532;2022-08-20T10:47:40;25.30;77.50
51557;DHT22;38766;53.194;5.532;2022-08-20T10:50:09;25.30;78.00
51557;DHT22;38766;53.194;5.532;2022-08-20T10:52:36;25.30;77.40
51557;DHT22;38766;53.194;5.532;2022-08-20T10:55:02;25.40;77.10
51557;DHT22;38766;53.194;5.532;2022-08-20T10:57:30;25.40;76.70
51557;DHT22;38766;53.194;5.532;2022-08-20T10:59:59;25.40;76.70
51557;DHT22;38766;53.194;5.532;2022-08-20T11:02:26;25.50;77.20
51557;DHT22;38766;53.194;5.532;2022-08-20T11:04:52;25.50;76.90
51557;DHT22;38766;53.194;5.532;2022-08-20T11:07:20;25.50;75.70
51557;DHT22;38766;53.194;5.532;2022-08-20T11:09:48;25.50;75.70
51557;DHT22;38766;53.194;5.532;2022-08-20T11:12:15;25.50;75.60
51557;DHT22;38766;53.194;5.532;2022-08-20T11:14:41;25.60;75.80
51557;DHT22;38766;53.194;5.532;2022-08-20T11:17:07;25.50;75.40
51557;DHT22;38766;53.194;5.532;2022-08-20T11:19:41;25.60;75.10
51557;DHT22;38766;53.194;5.532;2022-08-20T11:22:07;25.60;75.60
51557;DHT22;38766;53.194;5.532;2022-08-20T11:24:33;25.60;75.70
51557;DHT22;38766;53.194;5.532;2022-08-20T11:26:59;25.60;76.00
51557;DHT22;38766;53.194;5.532;2022-08-20T11:29:25;25.60;75.30
51557;DHT22;38766;53.194;5.532;2022-08-20T11:31:51;25.60;74.90
51557;DHT22;38766;53.194;5.532;2022-08-20T11:34:17;25.70;75.50
51557;DHT22;38766;53.194;5.532;2022-08-20T11:36:44;25.70;76.40
51557;DHT22;38766;53.194;5.532;2022-08-20T11:39:11;25.70;77.10
51557;DHT22;38766;53.194;5.532;2022-08-20T11:41:36;25.70;76.70
51557;DHT22;38766;53.194;5.532;2022-08-20T11:44:02;25.70;77.40
51557;DHT22;38766;53.194;5.532;2022-08-20T11:46:28;25.80;76.70
51557;DHT22;38766;53.194;5.532;2022-08-20T11:48:53;25.90;76.70
51557;DHT22;38766;53.194;5.532;2022-08-20T11:51:19;25.90;77.10
51557;DHT22;38766;53.194;5.532;2022-08-20T11:53:44;25.90;76.10
51557;DHT22;38766;53.194;5.532;2022-08-20T11:56:11;26.00;75.80
51557;DHT22;38766;53.194;5.532;2022-08-20T11:58:37;26.10;76.00
51557;DHT22;38766;53.194;5.532;2022-08-20T12:01:03;26.10;75.70
51557;DHT22;38766;53.194;5.532;2022-08-20T12:03:29;26.10;75.00
51557;DHT22;38766;53.194;5.532;2022-08-20T12:05:55;26.10;74.80
51557;DHT22;38766;53.194;5.532;2022-08-20T12:08:22;26.20;73.80
51557;DHT22;38766;53.194;5.532;2022-08-20T12:10:47;26.20;73.50
51557;DHT22;38766;53.194;5.532;2022-08-20T12:13:13;26.20;73.80
51557;DHT22;38766;53.194;5.532;2022-08-20T12:15:39;26.30;74.30
51557;DHT22;38766;53.194;5.532;2022-08-20T12:18:06;26.30;73.40
51557;DHT22;38766;53.194;5.532;2022-08-20T12:20:32;26.30;73.00
51557;DHT22;38766;53.194;5.532;2022-08-20T12:22:58;26.30;73.40
51557;DHT22;38766;53.194;5.532;2022-08-20T12:25:23;26.30;74.10
51557;DHT22;38766;53.194;5.532;2022-08-20T12:27:49;26.30;75.00
51557;DHT22;38766;53.194;5.532;2022-08-20T12:30:18;26.30;74.50
51557;DHT22;38766;53.194;5.532;2022-08-20T12:32:44;26.30;73.90
51557;DHT22;38766;53.194;5.532;2022-08-20T12:35:11;26.30;74.10
51557;DHT22;38766;53.194;5.532;2022-08-20T12:37:37;26.30;74.70
51557;DHT22;38766;53.194;5.532;2022-08-20T12:40:06;26.30;74.70
51557;DHT22;38766;53.194;5.532;2022-08-20T12:42:32;26.40;74.90
51557;DHT22;38766;53.194;5.532;2022-08-20T12:44:58;26.40;75.70
51557;DHT22;38766;53.194;5.532;2022-08-20T12:47:26;26.40;76.00
51557;DHT22;38766;53.194;5.532;2022-08-20T12:50:01;26.40;75.00
51557;DHT22;38766;53.194;5.532;2022-08-20T12:52:28;26.40;75.20
51557;DHT22;38766;53.194;5.532;2022-08-20T12:54:55;26.40;76.00
51557;DHT22;38766;53.194;5.532;2022-08-20T12:57:32;26.40;76.70
51557;DHT22;38766;53.194;5.532;2022-08-20T13:00:03;26.40;77.60
51557;DHT22;38766;53.194;5.532;2022-08-20T13:02:29;26.40;77.50
51557;DHT22;38766;53.194;5.532;2022-08-20T13:04:54;26.50;77.40
51557;DHT22;38766;53.194;5.532;2022-08-20T13:07:20;26.50;77.70
51557;DHT22;38766;53.194;5.532;2022-08-20T13:09:46;26.50;75.90
51557;DHT22;38766;53.194;5.532;2022-08-20T13:12:11;26.50;75.40
51557;DHT22;38766;53.194;5.532;2022-08-20T13:14:39;26.50;75.20
51557;DHT22;38766;53.194;5.532;2022-08-20T13:17:05;26.50;75.00
51557;DHT22;38766;53.194;5.532;2022-08-20T13:19:33;26.30;75.00
51557;DHT22;38766;53.194;5.532;2022-08-20T13:21:59;26.20;75.30
51557;DHT22;38766;53.194;5.532;2022-08-20T13:24:25;26.20;76.20
51557;DHT22;38766;53.194;5.532;2022-08-20T13:26:51;26.10;76.40
51557;DHT22;38766;53.194;5.532;2022-08-20T13:29:18;26.10;76.80
51557;DHT22;38766;53.194;5.532;2022-08-20T13:31:44;26.10;76.90
51557;DHT22;38766;53.194;5.532;2022-08-20T13:34:09;26.10;77.50
51557;DHT22;38766;53.194;5.532;2022-08-20T13:36:35;26.10;77.80
51557;DHT22;38766;53.194;5.532;2022-08-20T13:39:03;26.10;76.90
51557;DHT22;38766;53.194;5.532;2022-08-20T13:41:29;26.10;75.90
51557;DHT22;38766;53.194;5.532;2022-08-20T13:43:54;26.10;76.20
51557;DHT22;38766;53.194;5.532;2022-08-20T13:46:20;26.10;76.20
51557;DHT22;38766;53.194;5.532;2022-08-20T13:48:45;26.10;76.50
51557;DHT22;38766;53.194;5.532;2022-08-20T13:51:11;26.00;75.20
51557;DHT22;38766;53.194;5.532;2022-08-20T13:53:36;26.00;74.50
51557;DHT22;38766;53.194;5.532;2022-08-20T13:56:02;26.00;74.70
51557;DHT22;38766;53.194;5.532;2022-08-20T13:58:28;26.10;75.00
51557;DHT22;38766;53.194;5.532;2022-08-20T14:00:54;26.10;75.10
51557;DHT22;38766;53.194;5.532;2022-08-20T14:03:19;26.10;74.70
51557;DHT22;38766;53.194;5.532;2022-08-20T14:05:45;26.00;74.20
51557;DHT22;38766;53.194;5.532;2022-08-20T14:08:14;26.00;73.50
51557;DHT22;38766;53.194;5.532;2022-08-20T14:10:40;26.00;72.60
51557;DHT22;38766;53.194;5.532;2022-08-20T14:13:06;25.90;72.70
51557;DHT22;38766;53.194;5.532;2022-08-20T14:15:33;25.90;72.90
51557;DHT22;38766;53.194;5.532;2022-08-20T14:17:59;25.90;73.90
51557;DHT22;38766;53.194;5.532;2022-08-20T14:20:29;25.90;73.60
51557;DHT22;38766;53.194;5.532;2022-08-20T14:22:55;25.90;73.90
51557;DHT22;38766;53.194;5.532;2022-08-20T14:25:22;25.90;74.20
51557;DHT22;38766;53.194;5.532;2022-08-20T14:27:49;25.90;74.50
51557;DHT22;38766;53.194;5.532;2022-08-20T14:30:21;25.80;74.70
51557;DHT22;38766;53.194;5.532;2022-08-20T14:32:47;25.80;74.90
51557;DHT22;38766;53.194;5.532;2022-08-20T14:35:14;25.80;75.40
51557;DHT22;38766;53.194;5.532;2022-08-20T14:37:46;25.80;75.80
51557;DHT22;38766;53.194;5.532;2022-08-20T14:40:15;25.80;75.90
51557;DHT22;38766;53.194;5.532;2022-08-20T14:42:41;25.80;76.30
51557;DHT22;38766;53.194;5.532;2022-08-20T14:45:09;25.80;76.50
51557;DHT22;38766;53.194;5.532;2022-08-20T14:47:37;25.80;76.80
51557;DHT22;38766;53.194;5.532;2022-08-20T14:50:07;25.70;77.30
51557;DHT22;38766;53.194;5.532;2022-08-20T14:52:33;25.70;77.40
51557;DHT22;38766;53.194;5.532;2022-08-20T14:55:05;25.70;77.70
51557;DHT22;38766;53.194;5.532;2022-08-20T14:57:32;25.70;78.10
51557;DHT22;38766;53.194;5.532;2022-08-20T14:59:58;25.70;78.20
51557;DHT22;38766;53.194;5.532;2022-08-20T15:02:24;25.70;78.90
51557;DHT22;38766;53.194;5.532;2022-08-20T15:04:50;25.60;79.40
51557;DHT22;38766;53.194;5.532;2022-08-20T15:07:25;25.60;80.20
51557;DHT22;38766;53.194;5.532;2022-08-20T15:09:51;25.60;80.70
51557;DHT22;38766;53.194;5.532;2022-08-20T15:12:17;25.60;80.50
51557;DHT22;38766;53.194;5.532;2022-08-20T15:14:43;25.50;79.80
51557;DHT22;38766;53.194;5.532;2022-08-20T15:17:10;25.40;79.40
51557;DHT22;38766;53.194;5.532;2022-08-20T15:19:36;25.40;79.10
51557;DHT22;38766;53.194;5.532;2022-08-20T15:22:02;25.40;78.90
51557;DHT22;38766;53.194;5.532;2022-08-20T15:24:28;25.40;79.20
51557;DHT22;38766;53.194;5.532;2022-08-20T15:26:53;25.40;79.20
51557;DHT22;38766;53.194;5.532;2022-08-20T15:29:19;25.40;79.10
51557;DHT22;38766;53.194;5.532;2022-08-20T15:31:44;25.40;78.90
51557;DHT22;38766;53.194;5.532;2022-08-20T15:34:10;25.40;78.70
51557;DHT22;38766;53.194;5.532;2022-08-20T15:36:36;25.40;78.50
51557;DHT22;38766;53.194;5.532;2022-08-20T15:39:01;25.40;78.20
51557;DHT22;38766;53.194;5.532;2022-08-20T15:41:27;25.30;78.30
51557;DHT22;38766;53.194;5.532;2022-08-20T15:43:55;25.30;78.10
51557;DHT22;38766;53.194;5.532;2022-08-20T15:46:22;25.30;78.00